Map

Track Data

SID SEASON NUMBER BASIN SUBBASIN NAME ISO_TIME NATURE LAT LON WMO_WIND WMO_PRES WMO_AGENCY TRACK_TYPE DIST2LAND LANDFALL IFLAG USA_AGENCY USA_ATCF_ID USA_LAT USA_LON USA_RECORD USA_STATUS USA_WIND USA_PRES USA_SSHS USA_R34_NE USA_R34_SE USA_R34_SW USA_R34_NW USA_R50_NE USA_R50_SE USA_R50_SW USA_R50_NW USA_R64_NE USA_R64_SE USA_R64_SW USA_R64_NW USA_POCI USA_ROCI USA_RMW USA_EYE TOKYO_LAT TOKYO_LON TOKYO_GRADE TOKYO_WIND TOKYO_PRES TOKYO_R50_DIR TOKYO_R50_LONG TOKYO_R50_SHORT TOKYO_R30_DIR TOKYO_R30_LONG TOKYO_R30_SHORT TOKYO_LAND CMA_LAT CMA_LON CMA_CAT CMA_WIND CMA_PRES HKO_LAT HKO_LON HKO_CAT HKO_WIND HKO_PRES NEWDELHI_LAT NEWDELHI_LON NEWDELHI_GRADE NEWDELHI_WIND NEWDELHI_PRES NEWDELHI_CI NEWDELHI_DP NEWDELHI_POCI REUNION_LAT REUNION_LON REUNION_TYPE REUNION_WIND REUNION_PRES REUNION_TNUM REUNION_CI REUNION_RMW REUNION_R34_NE REUNION_R34_SE REUNION_R34_SW REUNION_R34_NW REUNION_R50_NE REUNION_R50_SE REUNION_R50_SW REUNION_R50_NW REUNION_R64_NE REUNION_R64_SE REUNION_R64_SW REUNION_R64_NW BOM_LAT BOM_LON BOM_TYPE BOM_WIND BOM_PRES BOM_TNUM BOM_CI BOM_RMW BOM_R34_NE BOM_R34_SE BOM_R34_SW BOM_R34_NW BOM_R50_NE BOM_R50_SE BOM_R50_SW BOM_R50_NW BOM_R64_NE BOM_R64_SE BOM_R64_SW BOM_R64_NW BOM_ROCI BOM_POCI BOM_EYE BOM_POS_METHOD BOM_PRES_METHOD NADI_LAT NADI_LON NADI_CAT NADI_WIND NADI_PRES WELLINGTON_LAT WELLINGTON_LON WELLINGTON_WIND WELLINGTON_PRES DS824_LAT DS824_LON DS824_STAGE DS824_WIND DS824_PRES TD9636_LAT TD9636_LON TD9636_STAGE TD9636_WIND TD9636_PRES TD9635_LAT TD9635_LON TD9635_WIND TD9635_PRES TD9635_ROCI NEUMANN_LAT NEUMANN_LON NEUMANN_CLASS NEUMANN_WIND NEUMANN_PRES MLC_LAT MLC_LON MLC_CLASS MLC_WIND MLC_PRES USA_GUST BOM_GUST BOM_GUST_PER REUNION_GUST REUNION_GUST_PER USA_SEAHGT USA_SEARAD_NE USA_SEARAD_SE USA_SEARAD_SW USA_SEARAD_NW STORM_SPEED STORM_DIR
1892046S25053 1892 11 SI MM NOT_NAMED 1892-02-14 18:00:00 NR -25.1000 53.0000 main 485 485 __________O___ -1 -25.1000 53.0000 7 7 224
1892046S25053 1892 11 SI MM NOT_NAMED 1892-02-14 21:00:00 NR -25.3332 52.7493 main 519 519 __________P___ -1 -25.3332 52.7493 7 6 224
1892046S25053 1892 11 SI MM NOT_NAMED 1892-02-15 00:00:00 NR -25.5629 52.4984 main 535 519 __________P___ -1 -25.5629 52.4984 7 6 225
1892046S25053 1892 11 SI MM NOT_NAMED 1892-02-15 03:00:00 NR -25.7862 52.2484 main 513 501 __________P___ -1 -25.7862 52.2484 7 6 226
1892046S25053 1892 11 SI MM NOT_NAMED 1892-02-15 06:00:00 NR -26.0000 52.0000 main 501 486 __________O___ -1 -26.0000 52.0000 7 6 227
1892046S25053 1892 11 SI MM NOT_NAMED 1892-02-15 09:00:00 NR -26.2029 51.7536 main 489 467 __________P___ -1 -26.2029 51.7536 7 6 228
1892046S25053 1892 11 SI MM NOT_NAMED 1892-02-15 12:00:00 NR -26.3997 51.5069 main 467 452 __________P___ -1 -26.3997 51.5069 7 6 229
1892046S25053 1892 11 SI MM NOT_NAMED 1892-02-15 15:00:00 NR -26.5967 51.2567 main 456 438 __________P___ -1 -26.5967 51.2567 7 6 228
1892046S25053 1892 11 SI MM NOT_NAMED 1892-02-15 18:00:00 NR -26.8000 51.0000 main 438 423 __________O___ -1 -26.8000 51.0000 7 6 228
1892046S25053 1892 11 SI MM NOT_NAMED 1892-02-15 21:00:00 NR -27.0137 50.7319 main 423 418 __________P___ -1 -27.0137 50.7319 7 7 228
1892046S25053 1892 11 SI MM NOT_NAMED 1892-02-16 00:00:00 NR -27.2349 50.4571 main 418 409 __________P___ -1 -27.2349 50.4571 7 7 228
1892046S25053 1892 11 SI MM NOT_NAMED 1892-02-16 03:00:00 NR -27.4636 50.1788 main 416 408 __________P___ -1 -27.4636 50.1788 7 7 227
1892046S25053 1892 11 SI MM NOT_NAMED 1892-02-16 06:00:00 NR -27.7000 49.9000 main 409 403 __________O___ -1 -27.7000 49.9000 7 7 225
1892046S25053 1892 11 SI MM NOT_NAMED 1892-02-16 09:00:00 NR -27.9590 49.6130 main 414 408 __________P___ -1 -27.9590 49.6130 7 7 224
1892046S25053 1892 11 SI MM NOT_NAMED 1892-02-16 12:00:00 NR -28.2225 49.3278 main 414 414 __________P___ -1 -28.2225 49.3278 7 7 224
1892046S25053 1892 11 SI MM NOT_NAMED 1892-02-16 15:00:00 NR -28.4747 49.0537 main 433 428 __________P___ -1 -28.4747 49.0537 7 7 224
1892046S25053 1892 11 SI MM NOT_NAMED 1892-02-16 18:00:00 NR -28.7000 48.8000 main 438 433 __________O___ -1 -28.7000 48.8000 7 6 226
1892046S25053 1892 11 SI MM NOT_NAMED 1892-02-16 21:00:00 NR -28.8872 48.5736 main 449 446 __________P___ -1 -28.8872 48.5736 7 5 228
1892046S25053 1892 11 SI MM NOT_NAMED 1892-02-17 00:00:00 NR -29.0425 48.3699 main 452 452 __________P___ -1 -29.0425 48.3699 7 4 230
1892046S25053 1892 11 SI MM NOT_NAMED 1892-02-17 03:00:00 NR -29.1766 48.1812 main 467 464 __________P___ -1 -29.1766 48.1812 7 4 231
1892046S25053 1892 11 SI MM NOT_NAMED 1892-02-17 06:00:00 NR -29.3000 48.0000 main 472 __________O___ -1 -29.3000 48.0000 7 4 232

About IBTrACS Database

This database is a web-friendly format of International Best Track Archive for Climate Stewardship (IBTrACS), a global best track data archive curated by NOAA dating back to 1842.

Updated: 2021-12-03